Time;durP1;ratioP1;P1;durP2;ratioP2;P2;SDS_P1;SDS_P2;PMS_P1;PMS_P2;Temp;Humidity;BMP_temperature;BMP_pressure;BME280_temperature;BME280_humidity;BME280_pressure;Samples;Min_cycle;Max_cycle;Signal;HPM_P1;HPM_P2
2023/03/25 00:00:16;;;;;;;;;;;;;;;18.82;60.85;98681.59;2087578;28;19929;-52
2023/03/25 00:01:17;;;;;;;;;;;;;;;18.82;60.85;98672.72;2088091;28;19997;-50
2023/03/25 00:02:19;;;;;;;;;;;;;;;18.82;61.02;98668.16;2088854;28;20341;-52
2023/03/25 00:03:21;;;;;;;;;;;;;;;18.82;60.64;98676.22;2088928;28;19936;-51
2023/03/25 00:04:26;;;;;;;;;;;;;;;18.82;61.17;98670.84;2089484;28;19931;-50
2023/03/25 00:05:27;;;;;;;;;;;;;;;18.81;61.08;98674.56;2090035;28;20409;-51
2023/03/25 00:06:29;;;;;;;;;;;;;;;18.82;61.02;98676.22;2087990;28;19977;-50
2023/03/25 00:07:30;;;;;;;;;;;;;;;18.82;60.73;98686.97;2088887;28;20302;-52
2023/03/25 00:08:32;;;;;;;;;;;;;;;18.82;61.09;98692.34;2087013;28;19928;-50
2023/03/25 00:09:32;;;;;;;;;;;;;;;18.83;60.91;98698.53;2087208;28;19933;-53
2023/03/25 00:10:34;;;;;;;;;;;;;;;18.82;61.01;98694.22;2088970;28;20733;-50
2023/03/25 00:11:34;;;;;;;;;;;;;;;18.82;60.91;98697.72;2087676;28;20829;-50
2023/03/25 00:12:36;;;;;;;;;;;;;;;18.81;60.76;98697.94;2088122;28;20019;-53
2023/03/25 00:13:36;;;;;;;;;;;;;;;18.84;60.90;98698.34;2089099;28;19928;-53
2023/03/25 00:14:38;;;;;;;;;;;;;;;18.83;60.93;98702.03;2088127;28;19925;-50
2023/03/25 00:15:41;;;;;;;;;;;;;;;18.79;60.60;98692.75;2088701;28;19940;-50
2023/03/25 00:16:47;;;;;;;;;;;;;;;18.81;60.94;98696.06;2075698;27;19939;-53
2023/03/25 00:17:47;;;;;;;;;;;;;;;18.80;60.70;98696.25;2083442;28;19929;-52
2023/03/25 00:18:50;;;;;;;;;;;;;;;18.81;60.81;98688.00;2087269;28;19971;-51
2023/03/25 00:19:50;;;;;;;;;;;;;;;18.79;60.95;98692.75;2086626;28;20369;-53
2023/03/25 00:20:53;;;;;;;;;;;;;;;18.81;60.83;98689.88;2084056;28;19928;-53
2023/03/25 00:21:53;;;;;;;;;;;;;;;18.78;60.78;98683.03;2085150;28;21073;-50
2023/03/25 00:22:55;;;;;;;;;;;;;;;18.78;60.62;98687.56;2086053;28;19933;-50
2023/03/25 00:23:55;;;;;;;;;;;;;;;18.80;60.67;98688.19;2087104;28;20009;-50
2023/03/25 00:24:57;;;;;;;;;;;;;;;18.80;60.97;98688.19;2087044;28;19974;-51
2023/03/25 00:25:59;;;;;;;;;;;;;;;18.80;60.73;98686.34;2085666;28;19983;-51
2023/03/25 00:27:00;;;;;;;;;;;;;;;18.80;60.87;98689.03;2087720;27;19969;-53
2023/03/25 00:28:00;;;;;;;;;;;;;;;18.81;60.99;98687.19;2083791;28;19929;-49
2023/03/25 00:29:02;;;;;;;;;;;;;;;18.82;60.97;98678.91;2086151;27;20379;-51
2023/03/25 00:30:03;;;;;;;;;;;;;;;18.81;60.85;98676.44;2083752;28;20451;-52
2023/03/25 00:31:05;;;;;;;;;;;;;;;18.82;61.00;98691.53;2087318;28;19940;-52
2023/03/25 00:32:06;;;;;;;;;;;;;;;18.81;60.78;98679.94;2087704;28;19994;-53
2023/03/25 00:33:09;;;;;;;;;;;;;;;18.79;61.21;98684.69;2088848;28;20015;-52
2023/03/25 00:34:13;;;;;;;;;;;;;;;18.79;61.05;98687.38;2086368;28;19948;-51
2023/03/25 00:35:18;;;;;;;;;;;;;;;18.78;61.07;98684.88;2088582;28;19933;-53
2023/03/25 00:36:19;;;;;;;;;;;;;;;18.79;61.23;98687.38;2088768;28;19925;-51
2023/03/25 00:37:21;;;;;;;;;;;;;;;18.82;60.93;98675.41;2086243;28;20016;-51
2023/03/25 00:38:23;;;;;;;;;;;;;;;18.80;61.19;98672.06;2087550;28;19928;-47
2023/03/25 00:39:24;;;;;;;;;;;;;;;18.79;60.96;98675.81;2086505;28;19985;-52
2023/03/25 00:40:27;;;;;;;;;;;;;;;18.77;61.25;98678.69;2076757;28;20015;-55
2023/03/25 00:41:28;;;;;;;;;;;;;;;18.75;61.29;98678.09;2086610;28;20387;-54
2023/03/25 00:42:29;;;;;;;;;;;;;;;18.75;61.21;98670.03;2086653;28;19933;-49
2023/03/25 00:43:30;;;;;;;;;;;;;;;18.75;61.25;98678.91;2086396;28;19925;-52
2023/03/25 00:44:31;;;;;;;;;;;;;;;18.74;61.27;98677.22;2086511;28;19929;-49
2023/03/25 00:45:33;;;;;;;;;;;;;;;18.77;61.17;98669.81;2086471;28;19936;-53
2023/03/25 00:46:34;;;;;;;;;;;;;;;18.74;61.10;98668.34;2086720;28;19981;-54
2023/03/25 00:47:35;;;;;;;;;;;;;;;18.75;61.10;98667.34;2087523;28;19978;-55
2023/03/25 00:48:36;;;;;;;;;;;;;;;18.76;61.12;98666.28;2083143;28;19929;-53
2023/03/25 00:49:38;;;;;;;;;;;;;;;18.77;60.96;98659.88;2084728;28;20086;-52
2023/03/25 00:50:38;;;;;;;;;;;;;;;18.75;61.08;98664.66;2078182;28;20471;-53
2023/03/25 00:51:41;;;;;;;;;;;;;;;18.74;61.15;98662.97;2085712;28;19929;-53
2023/03/25 00:52:41;;;;;;;;;;;;;;;18.75;61.19;98675.41;2087087;28;19925;-51
2023/03/25 00:53:43;;;;;;;;;;;;;;;18.74;61.11;98674.53;2079030;28;21299;-54
2023/03/25 00:54:44;;;;;;;;;;;;;;;18.75;60.83;98664.66;2085731;28;19932;-50
2023/03/25 00:55:46;;;;;;;;;;;;;;;18.73;61.10;98663.97;2088035;28;21042;-52
2023/03/25 00:56:46;;;;;;;;;;;;;;;18.74;60.94;98665.66;2076478;28;20044;-54
2023/03/25 00:57:48;;;;;;;;;;;;;;;18.75;61.07;98665.47;2080944;28;20314;-50
2023/03/25 00:58:48;;;;;;;;;;;;;;;18.76;61.19;98660.91;2087161;28;20464;-53
2023/03/25 00:59:49;;;;;;;;;;;;;;;18.73;61.14;98655.91;2086216;28;19985;-51
2023/03/25 01:00:50;;;;;;;;;;;;;;;18.73;61.06;98661.28;2086658;28;20611;-52
2023/03/25 01:01:55;;;;;;;;;;;;;;;18.73;60.88;98661.28;2086891;28;19959;-53
2023/03/25 01:02:55;;;;;;;;;;;;;;;18.72;61.22;98665.00;2086125;28;19924;-55
2023/03/25 01:03:57;;;;;;;;;;;;;;;18.72;60.91;98665.00;2086738;28;20055;-51
2023/03/25 01:04:58;;;;;;;;;;;;;;;18.72;61.10;98670.38;2086705;28;19974;-51
2023/03/25 01:06:00;;;;;;;;;;;;;;;18.73;60.84;98658.59;2086768;28;19978;-51
2023/03/25 01:07:02;;;;;;;;;;;;;;;18.69;61.01;98660.88;2087418;28;19974;-53
2023/03/25 01:08:03;;;;;;;;;;;;;;;18.72;60.99;98662.31;2086605;28;19928;-54
2023/03/25 01:09:05;;;;;;;;;;;;;;;18.70;61.22;98653.66;2089087;28;20643;-55
2023/03/25 01:10:07;;;;;;;;;;;;;;;18.70;60.91;98656.34;2087858;28;20489;-53
2023/03/25 01:11:16;;;;;;;;;;;;;;;18.70;60.81;98650.97;2087384;28;19960;-57
2023/03/25 01:12:17;;;;;;;;;;;;;;;18.70;60.92;98656.34;2088552;28;19965;-52
2023/03/25 01:13:18;;;;;;;;;;;;;;;18.69;60.79;98647.44;2085884;28;20665;-52
2023/03/25 01:14:23;;;;;;;;;;;;;;;18.70;61.01;98649.09;2087380;28;20031;-52
2023/03/25 01:15:23;;;;;;;;;;;;;;;18.68;61.04;98647.63;2087344;28;19929;-55
2023/03/25 01:16:25;;;;;;;;;;;;;;;18.69;60.79;98639.38;2087072;28;19940;-51
2023/03/25 01:17:25;;;;;;;;;;;;;;;18.69;60.74;98643.91;2084705;28;19924;-54
2023/03/25 01:18:27;;;;;;;;;;;;;;;18.70;60.78;98645.59;2090226;28;19929;-52
2023/03/25 01:19:27;;;;;;;;;;;;;;;18.70;60.70;98645.59;2085639;28;19933;-52
2023/03/25 01:20:28;;;;;;;;;;;;;;;18.69;60.74;98643.91;2087394;28;19933;-53
2023/03/25 01:21:29;;;;;;;;;;;;;;;18.68;61.02;98637.72;2088216;28;20015;-51
2023/03/25 01:22:32;;;;;;;;;;;;;;;18.69;60.93;98630.47;2086938;28;19929;-54
2023/03/25 01:23:32;;;;;;;;;;;;;;;18.68;60.96;98632.34;2084186;28;19924;-52
2023/03/25 01:24:34;;;;;;;;;;;;;;;18.67;60.72;98622.63;2086623;28;19998;-49
2023/03/25 01:25:35;;;;;;;;;;;;;;;18.67;60.93;98627.19;2086046;28;19928;-51
2023/03/25 01:26:37;;;;;;;;;;;;;;;18.69;60.79;98625.97;2089216;28;19924;-57
2023/03/25 01:27:37;;;;;;;;;;;;;;;18.68;60.90;98621.59;2086944;28;19936;-52
2023/03/25 01:28:39;;;;;;;;;;;;;;;18.67;60.82;98619.94;2085727;28;19929;-52
2023/03/25 01:29:39;;;;;;;;;;;;;;;18.68;60.69;98615.41;2089301;28;20390;-52
2023/03/25 01:30:41;;;;;;;;;;;;;;;18.67;60.75;98616.44;2085933;28;19929;-53
2023/03/25 01:31:41;;;;;;;;;;;;;;;18.67;60.51;98617.25;2088806;28;19935;-56
2023/03/25 01:32:43;;;;;;;;;;;;;;;18.67;60.83;98611.06;2090146;28;20012;-49
2023/03/25 01:33:43;;;;;;;;;;;;;;;18.67;60.46;98609.22;2087288;28;19936;-53
2023/03/25 01:34:45;;;;;;;;;;;;;;;18.65;60.89;98610.44;2087893;28;19932;-49
2023/03/25 01:35:46;;;;;;;;;;;;;;;18.64;60.91;98606.09;2085678;28;19932;-48
2023/03/25 01:36:48;;;;;;;;;;;;;;;18.65;60.66;98602.38;2088151;28;20002;-51
2023/03/25 01:37:53;;;;;;;;;;;;;;;18.66;60.69;98601.34;2087613;28;19932;-54
2023/03/25 01:38:55;;;;;;;;;;;;;;;18.64;60.70;98596.19;2085986;28;19952;-56
2023/03/25 01:39:56;;;;;;;;;;;;;;;18.66;60.59;98595.97;2087411;28;19953;-52
2023/03/25 01:40:57;;;;;;;;;;;;;;;18.66;60.66;98585.22;2088060;28;19977;-53
2023/03/25 01:41:58;;;;;;;;;;;;;;;18.63;60.74;98589.13;2087105;28;19929;-48
2023/03/25 01:42:59;;;;;;;;;;;;;;;18.66;60.75;98586.03;2086880;28;19928;-48
2023/03/25 01:44:01;;;;;;;;;;;;;;;18.65;60.71;98580.91;2087997;27;20046;-53
2023/03/25 01:45:20;;;;;;;;;;;;;;;18.63;60.67;98573.03;2087328;28;19940;-52
2023/03/25 01:46:20;;;;;;;;;;;;;;;18.61;60.57;98576.94;2086294;28;19928;-53
2023/03/25 01:47:25;;;;;;;;;;;;;;;18.64;60.67;98577.38;2087968;28;19925;-56
2023/03/25 01:48:31;;;;;;;;;;;;;;;18.67;60.47;98573.47;2086266;28;20590;-51
2023/03/25 01:49:37;;;;;;;;;;;;;;;18.62;60.86;98563.31;2089040;28;20817;-53
2023/03/25 01:50:45;;;;;;;;;;;;;;;18.59;60.78;98565.59;2087910;28;19928;-52
2023/03/25 01:51:49;;;;;;;;;;;;;;;18.59;60.90;98563.72;2088361;28;19933;-49
2023/03/25 01:52:52;;;;;;;;;;;;;;;18.60;60.67;98559.19;2087267;28;19931;-53
2023/03/25 01:53:53;;;;;;;;;;;;;;;18.62;60.67;98557.13;2088276;28;20031;-50
2023/03/25 01:54:55;;;;;;;;;;;;;;;18.61;60.81;98552.78;2086988;28;19928;-54
2023/03/25 01:55:55;;;;;;;;;;;;;;;18.59;60.85;98557.53;2085664;28;19924;-50
2023/03/25 01:56:57;;;;;;;;;;;;;;;18.57;60.86;98549.69;2084325;28;19932;-53
2023/03/25 01:57:59;;;;;;;;;;;;;;;18.59;60.92;98552.16;2085211;28;19942;-54
2023/03/25 01:59:01;;;;;;;;;;;;;;;18.60;60.67;98548.44;2083098;28;19929;-52
2023/03/25 02:00:07;;;;;;;;;;;;;;;18.60;60.55;98545.75;2084642;28;19931;-54
2023/03/25 02:01:12;;;;;;;;;;;;;;;18.62;60.80;98546.38;2085857;28;19928;-53
2023/03/25 02:02:14;;;;;;;;;;;;;;;18.62;60.79;98549.06;2086579;28;19929;-54
2023/03/25 02:03:17;;;;;;;;;;;;;;;18.60;60.40;98543.06;2087254;28;19929;-50
2023/03/25 02:04:21;;;;;;;;;;;;;;;18.62;60.67;98546.38;2087516;28;19925;-53
2023/03/25 02:05:25;;;;;;;;;;;;;;;18.63;60.62;98543.47;2087902;28;19973;-52
2023/03/25 02:06:28;;;;;;;;;;;;;;;18.63;60.42;98548.84;2086117;28;19933;-52
2023/03/25 02:07:31;;;;;;;;;;;;;;;18.62;60.40;98541.84;2084220;28;19925;-53
2023/03/25 02:08:37;;;;;;;;;;;;;;;18.58;60.68;98543.25;2088280;28;19929;-54
2023/03/25 02:09:38;;;;;;;;;;;;;;;18.59;60.59;98539.56;2085862;28;19955;-53
2023/03/25 02:10:39;;;;;;;;;;;;;;;18.56;60.58;98536.47;2084823;28;20772;-53
2023/03/25 02:11:40;;;;;;;;;;;;;;;18.59;60.51;98533.38;2084128;28;19981;-49
2023/03/25 02:12:44;;;;;;;;;;;;;;;18.56;60.78;98534.59;2083974;28;20483;-53
2023/03/25 02:13:45;;;;;;;;;;;;;;;18.60;60.58;98532.31;2083714;28;20360;-52
2023/03/25 02:14:46;;;;;;;;;;;;;;;18.58;60.82;98539.75;2085728;28;20652;-50
2023/03/25 02:15:58;;;;;;;;;;;;;;;18.57;60.47;98535.44;2083138;28;20025;-51
2023/03/25 02:17:02;;;;;;;;;;;;;;;18.58;60.29;98534.38;2086814;28;19929;-51
2023/03/25 02:18:16;;;;;;;;;;;;;;;18.58;60.42;98526.31;2081964;28;19983;-52
2023/03/25 02:19:34;;;;;;;;;;;;;;;18.58;60.64;98535.19;2085663;28;19985;-50
2023/03/25 02:21:07;;;;;;;;;;;;;;;18.57;60.51;98533.56;2084728;28;19928;-50
2023/03/25 02:22:20;;;;;;;;;;;;;;;18.58;60.60;98534.38;2083141;28;19972;-53
2023/03/25 02:23:33;;;;;;;;;;;;;;;18.53;60.83;98540.38;2084797;28;20913;-50
2023/03/25 02:24:53;;;;;;;;;;;;;;;18.54;60.65;98534.78;2086644;28;19970;-52
2023/03/25 02:26:17;;;;;;;;;;;;;;;18.55;60.32;98524.88;2086817;28;19928;-53
2023/03/25 02:27:26;;;;;;;;;;;;;;;18.54;60.70;98520.53;2089137;28;19947;-54
2023/03/25 02:28:35;;;;;;;;;;;;;;;18.54;60.62;98512.47;2081449;28;19939;-52
2023/03/25 02:29:48;;;;;;;;;;;;;;;18.52;60.62;98520.72;2083183;28;19931;-52
2023/03/25 02:31:12;;;;;;;;;;;;;;;18.52;60.56;98515.38;2084541;28;20299;-50
2023/03/25 02:32:17;;;;;;;;;;;;;;;18.54;60.54;98512.47;2083921;27;19932;-51
2023/03/25 02:33:39;;;;;;;;;;;;;;;18.55;60.36;98514.13;2084307;28;19978;-51
2023/03/25 02:34:59;;;;;;;;;;;;;;;18.56;60.50;98517.66;2084107;28;19925;-52
2023/03/25 02:36:32;;;;;;;;;;;;;;;18.54;60.68;98510.63;2087281;28;20029;-51
2023/03/25 02:37:51;;;;;;;;;;;;;;;18.52;60.81;98515.38;2084516;28;19933;-53
2023/03/25 02:38:57;;;;;;;;;;;;;;;18.52;60.62;98509.16;2083289;28;20663;-51
2023/03/25 02:40:00;;;;;;;;;;;;;;;18.50;60.46;98506.72;2083714;28;19982;-49
2023/03/25 02:41:05;;;;;;;;;;;;;;;18.51;60.60;98507.53;2080535;28;19928;-53
2023/03/25 02:42:11;;;;;;;;;;;;;;;18.56;60.16;98501.56;2086181;28;20383;-50
2023/03/25 02:43:16;;;;;;;;;;;;;;;18.54;60.67;98505.25;2083692;28;19929;-52
2023/03/25 02:44:20;;;;;;;;;;;;;;;18.52;60.49;98501.94;2084197;28;19928;-52
2023/03/25 02:45:26;;;;;;;;;;;;;;;18.54;60.31;98507.94;2084382;28;20440;-53
2023/03/25 02:46:28;;;;;;;;;;;;;;;18.51;60.59;98500.28;2083911;28;20561;-53
2023/03/25 02:47:33;;;;;;;;;;;;;;;18.50;60.56;98498.66;2085320;28;19929;-53
2023/03/25 02:48:36;;;;;;;;;;;;;;;18.48;60.59;98498.03;2084772;28;19928;-50
2023/03/25 02:49:40;;;;;;;;;;;;;;;18.48;60.31;98489.97;2087589;28;19933;-53
2023/03/25 02:50:42;;;;;;;;;;;;;;;18.50;60.50;98495.97;2082163;28;19928;-52
2023/03/25 02:51:46;;;;;;;;;;;;;;;18.54;60.35;98489.13;2083895;28;19971;-53
2023/03/25 02:52:49;;;;;;;;;;;;;;;18.53;60.32;98490.19;2084370;28;20459;-49
2023/03/25 02:53:52;;;;;;;;;;;;;;;18.52;60.30;98491.19;2084921;28;19990;-51
2023/03/25 02:54:56;;;;;;;;;;;;;;;18.53;60.39;98489.34;2085258;28;19924;-51
2023/03/25 02:56:01;;;;;;;;;;;;;;;18.53;60.36;98481.31;2083075;28;19933;-50
2023/03/25 02:57:02;;;;;;;;;;;;;;;18.48;60.34;98484.59;2082771;28;19929;-52
2023/03/25 02:58:08;;;;;;;;;;;;;;;18.50;60.58;98487.91;2084224;28;19947;-52
2023/03/25 02:59:13;;;;;;;;;;;;;;;18.48;60.24;98481.91;2082902;28;20405;-53
2023/03/25 03:00:17;;;;;;;;;;;;;;;18.44;60.33;98483.38;2080965;28;20397;-52
2023/03/25 03:01:17;;;;;;;;;;;;;;;18.44;60.53;98475.31;2081623;28;20435;-51
2023/03/25 03:02:21;;;;;;;;;;;;;;;18.43;60.33;98473.63;2086675;28;19935;-49
2023/03/25 03:03:21;;;;;;;;;;;;;;;18.45;60.37;98470.75;2081100;28;19932;-53
2023/03/25 03:04:23;;;;;;;;;;;;;;;18.46;60.53;98462.47;2079385;28;19958;-52
2023/03/25 03:05:24;;;;;;;;;;;;;;;18.47;60.55;98466.00;2087066;28;19929;-52
2023/03/25 03:06:25;;;;;;;;;;;;;;;18.47;60.41;98472.22;2086685;28;19924;-50
2023/03/25 03:07:27;;;;;;;;;;;;;;;18.44;60.41;98472.63;2086002;28;19978;-52
2023/03/25 03:08:43;;;;;;;;;;;;;;;18.43;60.32;98473.63;2088943;28;19933;-52
2023/03/25 03:09:47;;;;;;;;;;;;;;;18.47;60.50;98474.91;2080398;28;20907;-51
2023/03/25 03:10:52;;;;;;;;;;;;;;;18.48;60.35;98471.16;2082593;28;19960;-50
2023/03/25 03:11:59;;;;;;;;;;;;;;;18.52;59.95;98461.66;2087108;27;20399;-52
2023/03/25 03:13:06;;;;;;;;;;;;;;;18.48;59.99;98465.78;2086361;28;20625;-50
2023/03/25 03:14:26;;;;;;;;;;;;;;;18.46;60.39;98472.41;2088417;28;19981;-52
2023/03/25 03:15:33;;;;;;;;;;;;;;;18.44;60.43;98463.72;2086934;28;19977;-53
2023/03/25 03:16:40;;;;;;;;;;;;;;;18.46;60.30;98462.47;2086432;28;19982;-49
2023/03/25 03:17:48;;;;;;;;;;;;;;;18.47;60.30;98466.00;2088179;28;19929;-52
2023/03/25 03:18:53;;;;;;;;;;;;;;;18.47;60.20;98452.56;2087884;28;20406;-53
2023/03/25 03:19:57;;;;;;;;;;;;;;;18.44;60.38;98451.16;2086262;28;20371;-53
2023/03/25 03:21:05;;;;;;;;;;;;;;;18.44;60.47;98447.59;2088535;28;19925;-53
2023/03/25 03:22:14;;;;;;;;;;;;;;;18.43;60.23;98445.97;2088882;28;20020;-51
2023/03/25 03:23:23;;;;;;;;;;;;;;;18.44;60.12;98452.97;2087623;28;19935;-52
2023/03/25 03:24:27;;;;;;;;;;;;;;;18.43;60.34;98452.16;2086605;28;20008;-51
2023/03/25 03:25:30;;;;;;;;;;;;;;;18.44;60.42;98456.50;2084903;28;19970;-50
2023/03/25 03:26:38;;;;;;;;;;;;;;;18.44;60.41;98448.47;2085908;28;19971;-48
2023/03/25 03:27:41;;;;;;;;;;;;;;;18.45;60.47;98457.34;2087228;28;19933;-54
2023/03/25 03:28:47;;;;;;;;;;;;;;;18.47;60.44;98457.94;2085306;28;19970;-54
2023/03/25 03:29:49;;;;;;;;;;;;;;;18.47;60.11;98463.31;2086602;28;19958;-56
2023/03/25 03:30:54;;;;;;;;;;;;;;;18.48;60.03;98468.47;2085781;28;20539;-52
2023/03/25 03:31:57;;;;;;;;;;;;;;;18.43;60.11;98468.28;2087434;28;20812;-54
2023/03/25 03:33:03;;;;;;;;;;;;;;;18.42;60.16;98465.81;2088185;28;19928;-52
2023/03/25 03:34:09;;;;;;;;;;;;;;;18.44;59.97;98469.09;2090262;28;20065;-50
2023/03/25 03:35:12;;;;;;;;;;;;;;;18.43;60.26;98468.28;2087411;28;20595;-54
2023/03/25 03:36:15;;;;;;;;;;;;;;;18.42;59.90;98472.00;2088771;28;19978;-50
2023/03/25 03:37:20;;;;;;;;;;;;;;;18.43;60.02;98475.50;2088388;28;19975;-54
2023/03/25 03:38:23;;;;;;;;;;;;;;;18.42;60.04;98481.91;2088158;28;19940;-52
2023/03/25 03:39:28;;;;;;;;;;;;;;;18.43;60.20;98472.81;2088297;28;20038;-52
2023/03/25 03:40:30;;;;;;;;;;;;;;;18.42;60.16;98474.69;2087089;28;19925;-50
2023/03/25 03:41:34;;;;;;;;;;;;;;;18.42;60.20;98479.22;2087253;28;20026;-50
2023/03/25 03:42:39;;;;;;;;;;;;;;;18.40;59.83;98479.44;2090929;28;20011;-50
2023/03/25 03:43:42;;;;;;;;;;;;;;;18.39;60.21;98477.78;2090034;28;20008;-53
2023/03/25 03:44:45;;;;;;;;;;;;;;;18.38;60.18;98478.78;2090834;28;19928;-55
2023/03/25 03:45:50;;;;;;;;;;;;;;;18.39;60.37;98483.16;2086482;28;20307;-56
2023/03/25 03:46:53;;;;;;;;;;;;;;;18.41;60.06;98480.25;2086581;28;19925;-53
2023/03/25 03:47:57;;;;;;;;;;;;;;;18.39;60.20;98482.34;2089016;28;19925;-49
2023/03/25 03:48:58;;;;;;;;;;;;;;;18.38;60.05;98481.47;2088599;28;20434;-51
2023/03/25 03:50:05;;;;;;;;;;;;;;;18.36;60.42;98480.88;2088260;28;21534;-52
2023/03/25 03:51:08;;;;;;;;;;;;;;;18.37;60.27;98484.38;2089531;28;19952;-48
2023/03/25 03:52:13;;;;;;;;;;;;;;;18.39;60.21;98483.16;2087920;28;19928;-51
2023/03/25 03:53:16;;;;;;;;;;;;;;;18.36;60.12;98491.63;2088775;28;19929;-51
2023/03/25 03:54:21;;;;;;;;;;;;;;;18.38;60.11;98492.22;2087333;28;19977;-53
2023/03/25 03:55:23;;;;;;;;;;;;;;;18.39;60.25;98499.25;2088794;28;19929;-56
2023/03/25 03:56:26;;;;;;;;;;;;;;;18.36;60.20;98485.41;2088341;28;19925;-53
2023/03/25 03:57:29;;;;;;;;;;;;;;;18.37;60.37;98489.75;2087196;28;19929;-55
2023/03/25 03:58:34;;;;;;;;;;;;;;;18.40;60.15;98492.03;2087893;28;20023;-55
2023/03/25 03:59:38;;;;;;;;;;;;;;;18.37;60.32;98485.22;2088745;28;19981;-55
2023/03/25 04:00:42;;;;;;;;;;;;;;;18.33;60.17;98483.97;2089541;28;19973;-54
2023/03/25 04:01:44;;;;;;;;;;;;;;;18.32;60.05;98487.69;2086692;28;19935;-51
2023/03/25 04:02:49;;;;;;;;;;;;;;;18.38;60.31;98486.03;2090081;28;20735;-51
2023/03/25 04:03:52;;;;;;;;;;;;;;;18.37;59.94;98487.06;2089448;28;19932;-52
2023/03/25 04:04:54;;;;;;;;;;;;;;;18.35;60.25;98489.94;2089215;28;20486;-51
2023/03/25 04:05:58;;;;;;;;;;;;;;;18.38;60.05;98494.09;2087068;28;19929;-48
2023/03/25 04:07:03;;;;;;;;;;;;;;;18.38;60.03;98494.91;2091027;28;19928;-50
2023/03/25 04:08:10;;;;;;;;;;;;;;;18.34;60.39;98491.00;2088934;28;19928;-54
2023/03/25 04:09:17;;;;;;;;;;;;;;;18.37;60.23;98490.59;2087325;28;20111;-49
2023/03/25 04:10:20;;;;;;;;;;;;;;;18.34;59.85;98482.94;2088672;28;20416;-57
2023/03/25 04:11:23;;;;;;;;;;;;;;;18.37;60.14;98477.16;2085934;28;20019;-54
2023/03/25 04:12:25;;;;;;;;;;;;;;;18.33;60.08;98486.66;2083480;28;21800;-53
2023/03/25 04:13:31;;;;;;;;;;;;;;;18.35;60.19;98481.91;2085620;28;19931;-50
2023/03/25 04:14:33;;;;;;;;;;;;;;;18.36;60.13;98483.56;2090031;28;19978;-50
2023/03/25 04:15:34;;;;;;;;;;;;;;;18.35;60.24;98487.25;2085920;28;19928;-53
2023/03/25 04:16:36;;;;;;;;;;;;;;;18.31;60.34;98486.84;2088877;28;20542;-50
2023/03/25 04:17:38;;;;;;;;;;;;;;;18.30;60.27;98489.72;2087641;28;19925;-51
2023/03/25 04:18:38;;;;;;;;;;;;;;;18.30;60.17;98481.69;2088422;28;19932;-52
2023/03/25 04:19:40;;;;;;;;;;;;;;;18.30;60.37;98484.38;2088594;28;19924;-53
2023/03/25 04:20:43;;;;;;;;;;;;;;;18.31;60.10;98488.72;2089284;28;20355;-51
2023/03/25 04:21:46;;;;;;;;;;;;;;;18.31;60.27;98488.72;2088524;28;19935;-51
2023/03/25 04:22:48;;;;;;;;;;;;;;;18.31;60.16;98491.41;2089598;28;19929;-52
2023/03/25 04:23:50;;;;;;;;;;;;;;;18.33;60.20;98492.03;2087816;28;19963;-52
2023/03/25 04:24:53;;;;;;;;;;;;;;;18.36;60.12;98494.31;2088169;28;20413;-51
2023/03/25 04:25:55;;;;;;;;;;;;;;;18.34;59.95;98496.38;2089756;28;20477;-53
2023/03/25 04:26:56;;;;;;;;;;;;;;;18.31;60.26;98502.97;2087442;28;19928;-48
2023/03/25 04:27:58;;;;;;;;;;;;;;;18.33;59.96;98509.97;2089314;28;20529;-57
2023/03/25 04:29:00;;;;;;;;;;;;;;;18.29;60.03;98505.03;2087206;28;19924;-53
2023/03/25 04:30:03;;;;;;;;;;;;;;;18.30;60.20;98506.69;2086638;28;19931;-56
2023/03/25 04:31:08;;;;;;;;;;;;;;;18.30;60.12;98509.38;2087751;28;19928;-51
2023/03/25 04:32:10;;;;;;;;;;;;;;;18.30;60.06;98506.69;2088291;28;19933;-48
2023/03/25 04:33:11;;;;;;;;;;;;;;;18.28;60.15;98514.13;2088071;28;19980;-54
2023/03/25 04:34:13;;;;;;;;;;;;;;;18.29;60.17;98513.06;2089573;28;20524;-48
2023/03/25 04:35:15;;;;;;;;;;;;;;;18.28;60.02;98514.13;2089290;28;19963;-51
2023/03/25 04:36:17;;;;;;;;;;;;;;;18.31;59.97;98515.56;2088443;28;19924;-53
2023/03/25 04:37:18;;;;;;;;;;;;;;;18.29;60.12;98515.75;2090353;28;19978;-50
2023/03/25 04:38:19;;;;;;;;;;;;;;;18.33;59.92;98516.19;2089381;28;19987;-56
2023/03/25 04:39:22;;;;;;;;;;;;;;;18.32;60.13;98514.53;2087601;28;19928;-51
2023/03/25 04:40:24;;;;;;;;;;;;;;;18.30;60.03;98513.91;2088585;28;20716;-52
2023/03/25 04:41:27;;;;;;;;;;;;;;;18.33;60.30;98509.97;2087345;28;20008;-49
2023/03/25 04:42:31;;;;;;;;;;;;;;;18.33;60.00;98502.78;2088220;28;19928;-55
2023/03/25 04:43:32;;;;;;;;;;;;;;;18.30;59.93;98505.84;2087803;28;20011;-56
2023/03/25 04:44:37;;;;;;;;;;;;;;;18.28;59.87;98515.97;2087472;28;19928;-54
2023/03/25 04:45:47;;;;;;;;;;;;;;;18.24;60.22;98518.22;2085368;28;20011;-54
2023/03/25 04:46:48;;;;;;;;;;;;;;;18.29;59.94;98520.31;2086448;28;19955;-54
2023/03/25 04:47:52;;;;;;;;;;;;;;;18.28;59.86;98521.34;2087916;28;19932;-53
2023/03/25 04:48:55;;;;;;;;;;;;;;;18.27;60.25;98522.38;2088913;28;19924;-52
2023/03/25 04:49:57;;;;;;;;;;;;;;;18.29;60.20;98523.00;2089680;28;20003;-55
2023/03/25 04:50:57;;;;;;;;;;;;;;;18.27;60.11;98523.19;2087093;28;19928;-53
2023/03/25 04:52:01;;;;;;;;;;;;;;;18.28;60.02;98526.72;2087696;28;20256;-55
2023/03/25 04:53:01;;;;;;;;;;;;;;;18.26;60.33;98532.28;2086742;28;19936;-50
2023/03/25 04:54:03;;;;;;;;;;;;;;;18.24;60.26;98531.66;2087621;28;19929;-53
2023/03/25 04:55:04;;;;;;;;;;;;;;;18.29;59.90;98531.06;2088351;28;20402;-52
2023/03/25 04:56:06;;;;;;;;;;;;;;;18.24;60.00;98530.81;2086038;28;19937;-54
2023/03/25 04:57:07;;;;;;;;;;;;;;;18.28;60.05;98537.47;2086292;28;19929;-54
2023/03/25 04:58:09;;;;;;;;;;;;;;;18.27;59.87;98533.94;2088136;28;20928;-53
2023/03/25 04:59:10;;;;;;;;;;;;;;;18.28;60.12;98535.59;2088612;28;19925;-49
2023/03/25 05:00:12;;;;;;;;;;;;;;;18.28;59.95;98538.28;2088797;28;20378;-50
2023/03/25 05:01:19;;;;;;;;;;;;;;;18.27;59.95;98539.28;2088140;28;20046;-53
2023/03/25 05:02:22;;;;;;;;;;;;;;;18.23;59.98;98543.44;2089274;28;19929;-51
2023/03/25 05:03:23;;;;;;;;;;;;;;;18.24;59.89;98541.56;2087333;28;20486;-53
2023/03/25 05:04:24;;;;;;;;;;;;;;;18.23;60.19;98535.38;2088232;28;19954;-50
2023/03/25 05:05:25;;;;;;;;;;;;;;;18.21;60.18;98528.56;2087117;28;19940;-54
2023/03/25 05:06:26;;;;;;;;;;;;;;;18.21;59.86;98534.75;2089054;28;19929;-56
2023/03/25 05:07:28;;;;;;;;;;;;;;;18.19;59.87;98531.47;2087757;28;19978;-54
2023/03/25 05:08:30;;;;;;;;;;;;;;;18.19;59.93;98533.28;2088475;28;19940;-54
2023/03/25 05:09:30;;;;;;;;;;;;;;;18.21;60.00;98528.56;2088451;28;19925;-52
2023/03/25 05:10:33;;;;;;;;;;;;;;;18.22;60.15;98531.06;2090087;27;19967;-56
2023/03/25 05:11:34;;;;;;;;;;;;;;;18.24;60.29;98538.88;2087774;28;20778;-51
2023/03/25 05:12:36;;;;;;;;;;;;;;;18.26;59.90;98536.81;2088929;28;19936;-53
2023/03/25 05:13:36;;;;;;;;;;;;;;;18.25;60.27;98540.56;2087227;28;19929;-54
2023/03/25 05:14:37;;;;;;;;;;;;;;;18.23;60.15;98543.44;2084394;28;19955;-48
2023/03/25 05:15:38;;;;;;;;;;;;;;;18.26;60.44;98539.50;2084606;28;19928;-55
2023/03/25 05:16:41;;;;;;;;;;;;;;;18.28;60.23;98540.16;2089071;28;19928;-48
2023/03/25 05:17:42;;;;;;;;;;;;;;;18.26;60.38;98536.81;2080959;28;20012;-54
2023/03/25 05:18:44;;;;;;;;;;;;;;;18.27;60.31;98539.28;2086432;28;20758;-51
2023/03/25 05:19:44;;;;;;;;;;;;;;;18.29;60.06;98539.09;2078460;28;20135;-54
2023/03/25 05:20:49;;;;;;;;;;;;;;;18.29;60.21;98536.41;2082724;28;19937;-56
2023/03/25 05:21:51;;;;;;;;;;;;;;;18.26;60.26;98531.47;2082613;28;19932;-56
2023/03/25 05:22:56;;;;;;;;;;;;;;;18.27;60.33;98533.94;2082823;28;19929;-51
2023/03/25 05:23:57;;;;;;;;;;;;;;;18.25;60.39;98546.75;2085842;28;19924;-52
2023/03/25 05:25:01;;;;;;;;;;;;;;;18.23;60.26;98543.44;2083772;28;19979;-54
2023/03/25 05:26:02;;;;;;;;;;;;;;;18.26;60.13;98539.50;2084800;28;19924;-52
2023/03/25 05:27:03;;;;;;;;;;;;;;;18.23;60.27;98537.25;2084251;28;20390;-53
2023/03/25 05:28:04;;;;;;;;;;;;;;;18.28;60.12;98537.47;2082958;28;19960;-52
2023/03/25 05:29:07;;;;;;;;;;;;;;;18.27;60.14;98544.66;2083804;28;19939;-52
2023/03/25 05:30:09;;;;;;;;;;;;;;;18.28;60.15;98532.09;2088166;28;19928;-51
2023/03/25 05:31:10;;;;;;;;;;;;;;;18.22;60.42;98533.72;2082481;28;19948;-54